sensor_id;sensor_type;location;lat;lon;timestamp;P1;durP1;ratioP1;P2;durP2;ratioP2
19030;SDS011;9648;51.130;13.978;2022-12-29T00:01:20;3.70;;;1.60;;
19030;SDS011;9648;51.130;13.978;2022-12-29T00:03:47;3.38;;;1.70;;
19030;SDS011;9648;51.130;13.978;2022-12-29T00:06:18;3.15;;;1.40;;
19030;SDS011;9648;51.130;13.978;2022-12-29T00:08:47;2.40;;;1.45;;
19030;SDS011;9648;51.130;13.978;2022-12-29T00:11:15;2.97;;;1.70;;
19030;SDS011;9648;51.130;13.978;2022-12-29T00:13:47;3.70;;;1.70;;
19030;SDS011;9648;51.130;13.978;2022-12-29T00:16:37;2.47;;;1.70;;
19030;SDS011;9648;51.130;13.978;2022-12-29T00:19:09;3.15;;;1.70;;
19030;SDS011;9648;51.130;13.978;2022-12-29T00:21:52;3.38;;;1.60;;
19030;SDS011;9648;51.130;13.978;2022-12-29T00:24:39;4.00;;;1.60;;
19030;SDS011;9648;51.130;13.978;2022-12-29T00:27:30;2.83;;;1.45;;
19030;SDS011;9648;51.130;13.978;2022-12-29T00:30:15;2.03;;;1.30;;
19030;SDS011;9648;51.130;13.978;2022-12-29T00:33:07;3.08;;;1.60;;
19030;SDS011;9648;51.130;13.978;2022-12-29T00:35:55;2.75;;;1.45;;
19030;SDS011;9648;51.130;13.978;2022-12-29T00:38:27;3.17;;;1.50;;
19030;SDS011;9648;51.130;13.978;2022-12-29T00:41:21;3.53;;;1.50;;
19030;SDS011;9648;51.130;13.978;2022-12-29T00:44:08;2.50;;;1.20;;
19030;SDS011;9648;51.130;13.978;2022-12-29T00:46:42;2.60;;;1.38;;
19030;SDS011;9648;51.130;13.978;2022-12-29T00:49:11;2.30;;;1.30;;
19030;SDS011;9648;51.130;13.978;2022-12-29T00:52:01;3.20;;;1.73;;
19030;SDS011;9648;51.130;13.978;2022-12-29T00:54:33;3.30;;;1.40;;
19030;SDS011;9648;51.130;13.978;2022-12-29T00:57:02;2.00;;;1.48;;
19030;SDS011;9648;51.130;13.978;2022-12-29T00:59:35;3.87;;;1.50;;
19030;SDS011;9648;51.130;13.978;2022-12-29T01:02:06;2.20;;;1.23;;
19030;SDS011;9648;51.130;13.978;2022-12-29T01:04:35;2.70;;;1.43;;
19030;SDS011;9648;51.130;13.978;2022-12-29T01:07:04;3.08;;;1.50;;
19030;SDS011;9648;51.130;13.978;2022-12-29T01:09:34;2.35;;;1.30;;
19030;SDS011;9648;51.130;13.978;2022-12-29T01:12:26;2.50;;;1.20;;
19030;SDS011;9648;51.130;13.978;2022-12-29T01:15:10;2.57;;;1.40;;
19030;SDS011;9648;51.130;13.978;2022-12-29T01:17:45;2.97;;;1.42;;
19030;SDS011;9648;51.130;13.978;2022-12-29T01:20:14;2.97;;;1.67;;
19030;SDS011;9648;51.130;13.978;2022-12-29T01:22:41;3.35;;;1.70;;
19030;SDS011;9648;51.130;13.978;2022-12-29T01:25:09;2.40;;;1.60;;
19030;SDS011;9648;51.130;13.978;2022-12-29T01:27:45;3.00;;;1.60;;
19030;SDS011;9648;51.130;13.978;2022-12-29T01:30:16;3.00;;;1.77;;
19030;SDS011;9648;51.130;13.978;2022-12-29T01:32:50;3.42;;;1.60;;
19030;SDS011;9648;51.130;13.978;2022-12-29T01:35:39;3.50;;;1.90;;
19030;SDS011;9648;51.130;13.978;2022-12-29T01:38:09;2.60;;;1.55;;
19030;SDS011;9648;51.130;13.978;2022-12-29T01:40:42;3.60;;;1.90;;
19030;SDS011;9648;51.130;13.978;2022-12-29T01:45:52;5.00;;;2.03;;
19030;SDS011;9648;51.130;13.978;2022-12-29T01:48:27;2.70;;;1.70;;
19030;SDS011;9648;51.130;13.978;2022-12-29T01:50:56;3.50;;;1.50;;
19030;SDS011;9648;51.130;13.978;2022-12-29T01:53:48;3.67;;;1.90;;
19030;SDS011;9648;51.130;13.978;2022-12-29T01:56:22;4.75;;;1.70;;
19030;SDS011;9648;51.130;13.978;2022-12-29T01:58:51;3.15;;;1.80;;
19030;SDS011;9648;51.130;13.978;2022-12-29T02:01:52;3.43;;;1.93;;
19030;SDS011;9648;51.130;13.978;2022-12-29T02:04:28;4.28;;;1.92;;
19030;SDS011;9648;51.130;13.978;2022-12-29T02:07:08;2.77;;;2.00;;
19030;SDS011;9648;51.130;13.978;2022-12-29T02:09:49;4.60;;;2.00;;
19030;SDS011;9648;51.130;13.978;2022-12-29T02:12:21;3.35;;;1.60;;
19030;SDS011;9648;51.130;13.978;2022-12-29T02:14:55;3.38;;;2.10;;
19030;SDS011;9648;51.130;13.978;2022-12-29T02:17:35;3.78;;;2.00;;
19030;SDS011;9648;51.130;13.978;2022-12-29T02:26:58;3.28;;;1.90;;
19030;SDS011;9648;51.130;13.978;2022-12-29T02:33:01;3.78;;;2.05;;
19030;SDS011;9648;51.130;13.978;2022-12-29T02:35:41;3.05;;;1.83;;
19030;SDS011;9648;51.130;13.978;2022-12-29T02:38:38;3.70;;;1.65;;
19030;SDS011;9648;51.130;13.978;2022-12-29T02:41:19;5.05;;;1.90;;
19030;SDS011;9648;51.130;13.978;2022-12-29T02:43:56;3.15;;;1.80;;
19030;SDS011;9648;51.130;13.978;2022-12-29T02:46:35;2.95;;;1.80;;
19030;SDS011;9648;51.130;13.978;2022-12-29T02:49:15;4.07;;;2.10;;
19030;SDS011;9648;51.130;13.978;2022-12-29T02:51:54;2.75;;;1.95;;
19030;SDS011;9648;51.130;13.978;2022-12-29T02:54:26;3.55;;;1.70;;
19030;SDS011;9648;51.130;13.978;2022-12-29T02:57:09;3.83;;;1.75;;
19030;SDS011;9648;51.130;13.978;2022-12-29T02:59:41;3.55;;;1.80;;
19030;SDS011;9648;51.130;13.978;2022-12-29T03:02:24;3.07;;;1.70;;
19030;SDS011;9648;51.130;13.978;2022-12-29T03:08:05;4.20;;;1.80;;
19030;SDS011;9648;51.130;13.978;2022-12-29T03:10:55;4.43;;;1.92;;
19030;SDS011;9648;51.130;13.978;2022-12-29T03:13:59;2.90;;;1.50;;
19030;SDS011;9648;51.130;13.978;2022-12-29T03:17:00;2.75;;;1.60;;
19030;SDS011;9648;51.130;13.978;2022-12-29T03:19:48;2.65;;;1.73;;
19030;SDS011;9648;51.130;13.978;2022-12-29T03:22:31;4.13;;;1.70;;
19030;SDS011;9648;51.130;13.978;2022-12-29T03:25:03;2.67;;;1.80;;
19030;SDS011;9648;51.130;13.978;2022-12-29T03:27:49;2.83;;;1.40;;
19030;SDS011;9648;51.130;13.978;2022-12-29T03:30:24;2.00;;;1.60;;
19030;SDS011;9648;51.130;13.978;2022-12-29T03:32:58;2.85;;;1.73;;
19030;SDS011;9648;51.130;13.978;2022-12-29T03:35:31;3.50;;;1.52;;
19030;SDS011;9648;51.130;13.978;2022-12-29T03:38:05;2.42;;;1.65;;
19030;SDS011;9648;51.130;13.978;2022-12-29T03:40:47;2.77;;;1.70;;
19030;SDS011;9648;51.130;13.978;2022-12-29T03:43:25;2.38;;;1.40;;
19030;SDS011;9648;51.130;13.978;2022-12-29T03:45:59;4.00;;;1.73;;
19030;SDS011;9648;51.130;13.978;2022-12-29T03:48:29;3.13;;;1.73;;
19030;SDS011;9648;51.130;13.978;2022-12-29T03:50:59;3.38;;;1.60;;
19030;SDS011;9648;51.130;13.978;2022-12-29T03:53:26;3.20;;;1.75;;
19030;SDS011;9648;51.130;13.978;2022-12-29T03:55:57;4.53;;;1.67;;
19030;SDS011;9648;51.130;13.978;2022-12-29T03:58:26;2.63;;;1.52;;
19030;SDS011;9648;51.130;13.978;2022-12-29T04:00:57;2.60;;;1.55;;
19030;SDS011;9648;51.130;13.978;2022-12-29T04:03:24;3.08;;;1.60;;
19030;SDS011;9648;51.130;13.978;2022-12-29T04:05:54;3.50;;;1.77;;
19030;SDS011;9648;51.130;13.978;2022-12-29T04:08:32;2.50;;;1.60;;
19030;SDS011;9648;51.130;13.978;2022-12-29T04:11:12;3.80;;;1.80;;
19030;SDS011;9648;51.130;13.978;2022-12-29T04:14:02;2.73;;;1.67;;
19030;SDS011;9648;51.130;13.978;2022-12-29T04:16:44;4.53;;;1.90;;
19030;SDS011;9648;51.130;13.978;2022-12-29T04:19:13;2.88;;;1.63;;
19030;SDS011;9648;51.130;13.978;2022-12-29T04:21:41;2.55;;;1.60;;
19030;SDS011;9648;51.130;13.978;2022-12-29T04:24:14;3.05;;;1.65;;
19030;SDS011;9648;51.130;13.978;2022-12-29T04:26:45;2.92;;;1.40;;
19030;SDS011;9648;51.130;13.978;2022-12-29T04:29:15;2.43;;;1.50;;
19030;SDS011;9648;51.130;13.978;2022-12-29T04:31:44;2.47;;;1.60;;
19030;SDS011;9648;51.130;13.978;2022-12-29T04:34:11;2.90;;;1.80;;
19030;SDS011;9648;51.130;13.978;2022-12-29T04:36:39;5.07;;;1.80;;
19030;SDS011;9648;51.130;13.978;2022-12-29T04:39:13;3.42;;;1.75;;
19030;SDS011;9648;51.130;13.978;2022-12-29T04:41:41;2.55;;;1.60;;
19030;SDS011;9648;51.130;13.978;2022-12-29T04:44:10;2.97;;;1.70;;
19030;SDS011;9648;51.130;13.978;2022-12-29T04:46:37;2.95;;;1.80;;
19030;SDS011;9648;51.130;13.978;2022-12-29T04:49:12;2.83;;;1.67;;
19030;SDS011;9648;51.130;13.978;2022-12-29T04:51:39;3.72;;;1.80;;
19030;SDS011;9648;51.130;13.978;2022-12-29T04:54:06;3.72;;;1.67;;
19030;SDS011;9648;51.130;13.978;2022-12-29T04:56:40;2.40;;;1.70;;
19030;SDS011;9648;51.130;13.978;2022-12-29T04:59:07;3.17;;;1.92;;
19030;SDS011;9648;51.130;13.978;2022-12-29T05:01:37;2.97;;;2.03;;
19030;SDS011;9648;51.130;13.978;2022-12-29T05:04:12;1.88;;;1.58;;
19030;SDS011;9648;51.130;13.978;2022-12-29T05:06:39;3.25;;;1.77;;
19030;SDS011;9648;51.130;13.978;2022-12-29T05:09:06;3.90;;;1.75;;
19030;SDS011;9648;51.130;13.978;2022-12-29T05:11:33;4.88;;;1.80;;
19030;SDS011;9648;51.130;13.978;2022-12-29T05:14:03;2.63;;;1.50;;
19030;SDS011;9648;51.130;13.978;2022-12-29T05:16:30;3.35;;;1.77;;
19030;SDS011;9648;51.130;13.978;2022-12-29T05:18:57;2.78;;;2.10;;
19030;SDS011;9648;51.130;13.978;2022-12-29T05:21:27;2.70;;;1.80;;
19030;SDS011;9648;51.130;13.978;2022-12-29T05:23:59;4.85;;;2.70;;
19030;SDS011;9648;51.130;13.978;2022-12-29T05:26:29;4.07;;;2.60;;
19030;SDS011;9648;51.130;13.978;2022-12-29T05:29:22;3.15;;;2.20;;
19030;SDS011;9648;51.130;13.978;2022-12-29T05:32:08;4.60;;;1.98;;
19030;SDS011;9648;51.130;13.978;2022-12-29T05:34:38;4.13;;;1.85;;
19030;SDS011;9648;51.130;13.978;2022-12-29T05:37:10;3.20;;;1.70;;
19030;SDS011;9648;51.130;13.978;2022-12-29T05:39:37;3.63;;;1.98;;
19030;SDS011;9648;51.130;13.978;2022-12-29T05:42:11;3.30;;;1.83;;
19030;SDS011;9648;51.130;13.978;2022-12-29T05:44:42;4.88;;;2.00;;
19030;SDS011;9648;51.130;13.978;2022-12-29T05:47:10;3.15;;;2.00;;
19030;SDS011;9648;51.130;13.978;2022-12-29T05:49:36;3.47;;;2.00;;
19030;SDS011;9648;51.130;13.978;2022-12-29T05:52:04;3.77;;;2.20;;
19030;SDS011;9648;51.130;13.978;2022-12-29T05:54:31;3.95;;;2.20;;
19030;SDS011;9648;51.130;13.978;2022-12-29T05:57:24;3.10;;;2.20;;
19030;SDS011;9648;51.130;13.978;2022-12-29T05:59:53;3.53;;;1.85;;
19030;SDS011;9648;51.130;13.978;2022-12-29T06:02:22;4.07;;;2.28;;
19030;SDS011;9648;51.130;13.978;2022-12-29T06:04:52;3.60;;;2.28;;
19030;SDS011;9648;51.130;13.978;2022-12-29T06:07:22;4.95;;;2.63;;
19030;SDS011;9648;51.130;13.978;2022-12-29T06:09:52;4.25;;;2.50;;
19030;SDS011;9648;51.130;13.978;2022-12-29T06:12:22;5.63;;;2.70;;
19030;SDS011;9648;51.130;13.978;2022-12-29T06:14:49;4.47;;;2.40;;
19030;SDS011;9648;51.130;13.978;2022-12-29T06:17:17;3.35;;;2.65;;
19030;SDS011;9648;51.130;13.978;2022-12-29T06:19:47;4.40;;;2.40;;
19030;SDS011;9648;51.130;13.978;2022-12-29T06:22:14;3.60;;;2.33;;
19030;SDS011;9648;51.130;13.978;2022-12-29T06:24:46;4.18;;;2.45;;
19030;SDS011;9648;51.130;13.978;2022-12-29T06:27:13;4.38;;;2.58;;
19030;SDS011;9648;51.130;13.978;2022-12-29T06:29:51;4.90;;;2.40;;
19030;SDS011;9648;51.130;13.978;2022-12-29T06:32:30;4.32;;;2.35;;
19030;SDS011;9648;51.130;13.978;2022-12-29T06:35:01;4.57;;;2.00;;
19030;SDS011;9648;51.130;13.978;2022-12-29T06:37:30;3.88;;;2.17;;
19030;SDS011;9648;51.130;13.978;2022-12-29T06:40:02;3.15;;;2.05;;
19030;SDS011;9648;51.130;13.978;2022-12-29T06:42:29;4.28;;;2.40;;
19030;SDS011;9648;51.130;13.978;2022-12-29T06:45:03;3.05;;;2.00;;
19030;SDS011;9648;51.130;13.978;2022-12-29T06:47:34;4.13;;;2.40;;
19030;SDS011;9648;51.130;13.978;2022-12-29T06:50:05;4.20;;;2.20;;
19030;SDS011;9648;51.130;13.978;2022-12-29T06:52:32;3.30;;;2.10;;
19030;SDS011;9648;51.130;13.978;2022-12-29T06:55:04;3.00;;;1.90;;
19030;SDS011;9648;51.130;13.978;2022-12-29T06:57:32;3.83;;;2.20;;
19030;SDS011;9648;51.130;13.978;2022-12-29T07:00:04;3.65;;;2.30;;
19030;SDS011;9648;51.130;13.978;2022-12-29T07:02:44;4.38;;;2.30;;
19030;SDS011;9648;51.130;13.978;2022-12-29T07:05:17;4.83;;;2.40;;
19030;SDS011;9648;51.130;13.978;2022-12-29T07:07:50;3.40;;;2.13;;
19030;SDS011;9648;51.130;13.978;2022-12-29T07:10:21;4.20;;;2.28;;
19030;SDS011;9648;51.130;13.978;2022-12-29T07:12:51;2.90;;;2.20;;
19030;SDS011;9648;51.130;13.978;2022-12-29T07:15:23;3.28;;;2.33;;
19030;SDS011;9648;51.130;13.978;2022-12-29T07:20:34;3.93;;;2.17;;
19030;SDS011;9648;51.130;13.978;2022-12-29T07:23:02;4.53;;;2.10;;
19030;SDS011;9648;51.130;13.978;2022-12-29T07:25:32;3.65;;;2.30;;
19030;SDS011;9648;51.130;13.978;2022-12-29T07:28:04;3.50;;;2.22;;
19030;SDS011;9648;51.130;13.978;2022-12-29T07:30:41;3.58;;;2.10;;
19030;SDS011;9648;51.130;13.978;2022-12-29T07:33:11;4.20;;;2.22;;
19030;SDS011;9648;51.130;13.978;2022-12-29T07:35:37;4.95;;;2.38;;
19030;SDS011;9648;51.130;13.978;2022-12-29T07:38:06;3.65;;;2.08;;
19030;SDS011;9648;51.130;13.978;2022-12-29T07:40:36;4.15;;;2.30;;
19030;SDS011;9648;51.130;13.978;2022-12-29T07:43:06;5.45;;;2.22;;
19030;SDS011;9648;51.130;13.978;2022-12-29T07:45:39;3.67;;;2.28;;
19030;SDS011;9648;51.130;13.978;2022-12-29T07:48:11;4.57;;;2.25;;
19030;SDS011;9648;51.130;13.978;2022-12-29T07:50:40;3.70;;;2.28;;
19030;SDS011;9648;51.130;13.978;2022-12-29T07:53:08;3.92;;;1.98;;
19030;SDS011;9648;51.130;13.978;2022-12-29T07:55:38;2.90;;;2.10;;
19030;SDS011;9648;51.130;13.978;2022-12-29T07:58:08;3.10;;;1.80;;
19030;SDS011;9648;51.130;13.978;2022-12-29T08:00:35;2.72;;;1.90;;
19030;SDS011;9648;51.130;13.978;2022-12-29T08:03:10;3.00;;;1.90;;
19030;SDS011;9648;51.130;13.978;2022-12-29T08:05:38;3.75;;;1.90;;
19030;SDS011;9648;51.130;13.978;2022-12-29T08:08:22;4.95;;;2.25;;
19030;SDS011;9648;51.130;13.978;2022-12-29T08:10:57;3.22;;;2.00;;
19030;SDS011;9648;51.130;13.978;2022-12-29T08:13:26;3.63;;;2.20;;
19030;SDS011;9648;51.130;13.978;2022-12-29T08:15:54;3.65;;;2.00;;
19030;SDS011;9648;51.130;13.978;2022-12-29T08:18:25;4.10;;;2.15;;
19030;SDS011;9648;51.130;13.978;2022-12-29T08:21:01;4.72;;;2.25;;
19030;SDS011;9648;51.130;13.978;2022-12-29T08:23:35;2.78;;;2.05;;
19030;SDS011;9648;51.130;13.978;2022-12-29T08:26:03;4.28;;;2.25;;
19030;SDS011;9648;51.130;13.978;2022-12-29T08:28:36;3.95;;;2.10;;
19030;SDS011;9648;51.130;13.978;2022-12-29T08:31:03;4.63;;;2.00;;
19030;SDS011;9648;51.130;13.978;2022-12-29T08:33:32;4.27;;;2.10;;
19030;SDS011;9648;51.130;13.978;2022-12-29T08:36:02;3.38;;;1.90;;
19030;SDS011;9648;51.130;13.978;2022-12-29T08:38:32;3.92;;;1.88;;
19030;SDS011;9648;51.130;13.978;2022-12-29T08:41:05;4.32;;;2.08;;
19030;SDS011;9648;51.130;13.978;2022-12-29T08:43:32;3.22;;;1.83;;
19030;SDS011;9648;51.130;13.978;2022-12-29T08:46:04;3.40;;;1.67;;
19030;SDS011;9648;51.130;13.978;2022-12-29T08:48:32;2.50;;;1.50;;
19030;SDS011;9648;51.130;13.978;2022-12-29T08:51:02;2.83;;;1.40;;
19030;SDS011;9648;51.130;13.978;2022-12-29T08:53:29;2.72;;;1.55;;
19030;SDS011;9648;51.130;13.978;2022-12-29T08:56:13;3.30;;;1.60;;
19030;SDS011;9648;51.130;13.978;2022-12-29T08:58:46;2.83;;;1.65;;
19030;SDS011;9648;51.130;13.978;2022-12-29T09:01:13;2.40;;;1.60;;
19030;SDS011;9648;51.130;13.978;2022-12-29T09:03:41;3.00;;;1.52;;
19030;SDS011;9648;51.130;13.978;2022-12-29T09:06:11;3.42;;;1.60;;
19030;SDS011;9648;51.130;13.978;2022-12-29T09:08:42;3.65;;;1.60;;
19030;SDS011;9648;51.130;13.978;2022-12-29T09:11:12;3.15;;;1.42;;
19030;SDS011;9648;51.130;13.978;2022-12-29T09:13:43;2.58;;;1.60;;
19030;SDS011;9648;51.130;13.978;2022-12-29T09:16:18;3.83;;;1.77;;
19030;SDS011;9648;51.130;13.978;2022-12-29T09:18:53;3.83;;;1.70;;
19030;SDS011;9648;51.130;13.978;2022-12-29T09:21:22;3.70;;;1.50;;
19030;SDS011;9648;51.130;13.978;2022-12-29T09:23:50;2.87;;;1.70;;
19030;SDS011;9648;51.130;13.978;2022-12-29T09:26:44;3.72;;;1.90;;
19030;SDS011;9648;51.130;13.978;2022-12-29T09:29:51;3.22;;;1.77;;
19030;SDS011;9648;51.130;13.978;2022-12-29T09:32:28;3.00;;;1.90;;
19030;SDS011;9648;51.130;13.978;2022-12-29T09:35:03;3.92;;;1.95;;
19030;SDS011;9648;51.130;13.978;2022-12-29T09:37:30;4.10;;;1.90;;
19030;SDS011;9648;51.130;13.978;2022-12-29T09:39:57;3.08;;;1.83;;
19030;SDS011;9648;51.130;13.978;2022-12-29T09:42:35;3.47;;;1.75;;
19030;SDS011;9648;51.130;13.978;2022-12-29T09:45:10;4.10;;;1.77;;
19030;SDS011;9648;51.130;13.978;2022-12-29T09:47:43;2.72;;;1.70;;
19030;SDS011;9648;51.130;13.978;2022-12-29T09:50:17;3.15;;;1.80;;
19030;SDS011;9648;51.130;13.978;2022-12-29T09:52:58;3.75;;;1.77;;
19030;SDS011;9648;51.130;13.978;2022-12-29T09:55:33;2.13;;;1.65;;
19030;SDS011;9648;51.130;13.978;2022-12-29T09:58:10;4.53;;;1.80;;
19030;SDS011;9648;51.130;13.978;2022-12-29T10:00:43;2.47;;;1.55;;
19030;SDS011;9648;51.130;13.978;2022-12-29T10:03:24;2.53;;;1.63;;
19030;SDS011;9648;51.130;13.978;2022-12-29T10:05:56;2.72;;;1.63;;
19030;SDS011;9648;51.130;13.978;2022-12-29T10:08:34;2.23;;;1.73;;
19030;SDS011;9648;51.130;13.978;2022-12-29T10:11:07;4.80;;;2.10;;
19030;SDS011;9648;51.130;13.978;2022-12-29T10:13:54;3.33;;;2.00;;
19030;SDS011;9648;51.130;13.978;2022-12-29T10:16:43;3.47;;;1.80;;
19030;SDS011;9648;51.130;13.978;2022-12-29T10:19:40;3.25;;;1.90;;
19030;SDS011;9648;51.130;13.978;2022-12-29T10:22:21;3.22;;;1.92;;
19030;SDS011;9648;51.130;13.978;2022-12-29T10:25:04;4.18;;;1.92;;
19030;SDS011;9648;51.130;13.978;2022-12-29T10:27:47;4.10;;;1.70;;
19030;SDS011;9648;51.130;13.978;2022-12-29T10:30:15;2.80;;;1.67;;
19030;SDS011;9648;51.130;13.978;2022-12-29T10:32:44;3.10;;;1.70;;
19030;SDS011;9648;51.130;13.978;2022-12-29T10:35:22;3.10;;;1.43;;
19030;SDS011;9648;51.130;13.978;2022-12-29T10:37:52;2.53;;;1.58;;
19030;SDS011;9648;51.130;13.978;2022-12-29T10:40:28;3.25;;;1.75;;
19030;SDS011;9648;51.130;13.978;2022-12-29T10:43:05;3.83;;;1.60;;
19030;SDS011;9648;51.130;13.978;2022-12-29T10:45:46;4.45;;;1.80;;
19030;SDS011;9648;51.130;13.978;2022-12-29T10:48:15;4.15;;;1.98;;
19030;SDS011;9648;51.130;13.978;2022-12-29T10:50:46;3.50;;;1.63;;
19030;SDS011;9648;51.130;13.978;2022-12-29T10:53:23;3.70;;;1.83;;
19030;SDS011;9648;51.130;13.978;2022-12-29T10:55:53;2.97;;;1.75;;
19030;SDS011;9648;51.130;13.978;2022-12-29T10:58:42;2.35;;;1.55;;
19030;SDS011;9648;51.130;13.978;2022-12-29T11:01:18;2.80;;;1.70;;
19030;SDS011;9648;51.130;13.978;2022-12-29T11:03:48;2.53;;;1.50;;
19030;SDS011;9648;51.130;13.978;2022-12-29T11:06:24;3.10;;;1.70;;
19030;SDS011;9648;51.130;13.978;2022-12-29T11:09:09;2.80;;;1.63;;
19030;SDS011;9648;51.130;13.978;2022-12-29T11:11:56;3.58;;;1.70;;
19030;SDS011;9648;51.130;13.978;2022-12-29T11:14:26;2.95;;;1.55;;
19030;SDS011;9648;51.130;13.978;2022-12-29T11:17:05;3.33;;;1.70;;
19030;SDS011;9648;51.130;13.978;2022-12-29T11:19:40;3.17;;;1.70;;
19030;SDS011;9648;51.130;13.978;2022-12-29T11:22:20;3.17;;;1.50;;
19030;SDS011;9648;51.130;13.978;2022-12-29T11:24:53;3.60;;;1.60;;
19030;SDS011;9648;51.130;13.978;2022-12-29T11:27:30;2.17;;;1.40;;
19030;SDS011;9648;51.130;13.978;2022-12-29T11:30:00;3.22;;;1.60;;
19030;SDS011;9648;51.130;13.978;2022-12-29T11:32:28;2.85;;;1.70;;
19030;SDS011;9648;51.130;13.978;2022-12-29T11:35:17;3.63;;;1.60;;
19030;SDS011;9648;51.130;13.978;2022-12-29T11:38:00;3.00;;;1.50;;
19030;SDS011;9648;51.130;13.978;2022-12-29T11:40:36;2.72;;;1.52;;
19030;SDS011;9648;51.130;13.978;2022-12-29T11:43:11;3.65;;;1.60;;
19030;SDS011;9648;51.130;13.978;2022-12-29T11:45:59;5.40;;;1.70;;
19030;SDS011;9648;51.130;13.978;2022-12-29T11:48:29;1.95;;;1.30;;
19030;SDS011;9648;51.130;13.978;2022-12-29T11:51:09;2.70;;;1.33;;
19030;SDS011;9648;51.130;13.978;2022-12-29T11:53:38;2.88;;;1.50;;
19030;SDS011;9648;51.130;13.978;2022-12-29T11:56:15;3.30;;;1.58;;
19030;SDS011;9648;51.130;13.978;2022-12-29T11:58:44;3.08;;;1.70;;
19030;SDS011;9648;51.130;13.978;2022-12-29T12:01:15;2.83;;;1.45;;
19030;SDS011;9648;51.130;13.978;2022-12-29T12:03:56;2.10;;;1.40;;
19030;SDS011;9648;51.130;13.978;2022-12-29T12:06:48;4.20;;;1.35;;
19030;SDS011;9648;51.130;13.978;2022-12-29T12:09:45;2.47;;;1.25;;
19030;SDS011;9648;51.130;13.978;2022-12-29T12:12:24;3.45;;;1.50;;
19030;SDS011;9648;51.130;13.978;2022-12-29T12:15:04;3.00;;;1.48;;
19030;SDS011;9648;51.130;13.978;2022-12-29T12:17:40;3.53;;;1.70;;
19030;SDS011;9648;51.130;13.978;2022-12-29T12:20:32;2.60;;;1.60;;
19030;SDS011;9648;51.130;13.978;2022-12-29T12:23:12;2.40;;;1.50;;
19030;SDS011;9648;51.130;13.978;2022-12-29T12:25:59;3.40;;;1.90;;
19030;SDS011;9648;51.130;13.978;2022-12-29T12:28:34;2.88;;;1.50;;
19030;SDS011;9648;51.130;13.978;2022-12-29T12:31:06;4.60;;;1.85;;
19030;SDS011;9648;51.130;13.978;2022-12-29T12:33:46;3.80;;;1.67;;
19030;SDS011;9648;51.130;13.978;2022-12-29T12:36:24;3.55;;;1.35;;
19030;SDS011;9648;51.130;13.978;2022-12-29T12:39:11;2.72;;;1.95;;
19030;SDS011;9648;51.130;13.978;2022-12-29T12:41:59;3.03;;;1.70;;
19030;SDS011;9648;51.130;13.978;2022-12-29T12:44:50;3.05;;;1.70;;
19030;SDS011;9648;51.130;13.978;2022-12-29T12:48:15;4.60;;;1.90;;
19030;SDS011;9648;51.130;13.978;2022-12-29T12:51:11;2.83;;;2.00;;
19030;SDS011;9648;51.130;13.978;2022-12-29T12:54:17;2.63;;;1.80;;
19030;SDS011;9648;51.130;13.978;2022-12-29T12:57:08;3.00;;;1.50;;
19030;SDS011;9648;51.130;13.978;2022-12-29T12:59:49;5.47;;;1.60;;
19030;SDS011;9648;51.130;13.978;2022-12-29T13:02:28;3.53;;;1.60;;
19030;SDS011;9648;51.130;13.978;2022-12-29T13:08:55;3.20;;;1.40;;
19030;SDS011;9648;51.130;13.978;2022-12-29T13:11:55;2.20;;;1.23;;
19030;SDS011;9648;51.130;13.978;2022-12-29T13:14:37;2.53;;;1.25;;
19030;SDS011;9648;51.130;13.978;2022-12-29T13:17:13;2.45;;;1.30;;
19030;SDS011;9648;51.130;13.978;2022-12-29T13:19:48;4.10;;;1.30;;
19030;SDS011;9648;51.130;13.978;2022-12-29T13:22:25;1.95;;;1.27;;
19030;SDS011;9648;51.130;13.978;2022-12-29T13:25:15;2.90;;;1.10;;
19030;SDS011;9648;51.130;13.978;2022-12-29T13:27:52;4.22;;;1.38;;
19030;SDS011;9648;51.130;13.978;2022-12-29T13:30:27;1.90;;;1.10;;
19030;SDS011;9648;51.130;13.978;2022-12-29T13:33:10;5.20;;;4.10;;
19030;SDS011;9648;51.130;13.978;2022-12-29T13:36:00;4.25;;;1.80;;
19030;SDS011;9648;51.130;13.978;2022-12-29T13:38:32;3.15;;;1.85;;
19030;SDS011;9648;51.130;13.978;2022-12-29T13:41:08;3.90;;;1.50;;
19030;SDS011;9648;51.130;13.978;2022-12-29T13:43:40;3.87;;;1.60;;
19030;SDS011;9648;51.130;13.978;2022-12-29T13:46:23;3.65;;;1.30;;
19030;SDS011;9648;51.130;13.978;2022-12-29T13:51:58;3.45;;;1.60;;
19030;SDS011;9648;51.130;13.978;2022-12-29T13:55:07;2.80;;;1.63;;
19030;SDS011;9648;51.130;13.978;2022-12-29T13:58:23;2.38;;;1.40;;
19030;SDS011;9648;51.130;13.978;2022-12-29T14:01:00;2.85;;;1.40;;
19030;SDS011;9648;51.130;13.978;2022-12-29T14:06:31;2.22;;;1.30;;
19030;SDS011;9648;51.130;13.978;2022-12-29T14:09:06;3.42;;;1.60;;
19030;SDS011;9648;51.130;13.978;2022-12-29T14:12:10;2.55;;;1.38;;
19030;SDS011;9648;51.130;13.978;2022-12-29T14:15:01;2.72;;;1.20;;
19030;SDS011;9648;51.130;13.978;2022-12-29T14:18:03;2.53;;;1.50;;
19030;SDS011;9648;51.130;13.978;2022-12-29T14:20:47;3.45;;;1.90;;
19030;SDS011;9648;51.130;13.978;2022-12-29T14:23:36;3.40;;;2.28;;
19030;SDS011;9648;51.130;13.978;2022-12-29T14:26:18;3.65;;;2.47;;
19030;SDS011;9648;51.130;13.978;2022-12-29T14:29:22;3.05;;;1.80;;
19030;SDS011;9648;51.130;13.978;2022-12-29T14:38:14;4.28;;;3.00;;
19030;SDS011;9648;51.130;13.978;2022-12-29T14:43:50;2.85;;;1.90;;
19030;SDS011;9648;51.130;13.978;2022-12-29T14:46:25;3.50;;;2.05;;
19030;SDS011;9648;51.130;13.978;2022-12-29T14:49:18;4.32;;;2.25;;
19030;SDS011;9648;51.130;13.978;2022-12-29T14:51:54;3.75;;;2.30;;
19030;SDS011;9648;51.130;13.978;2022-12-29T14:54:44;4.40;;;2.20;;
19030;SDS011;9648;51.130;13.978;2022-12-29T14:57:32;6.03;;;2.80;;
19030;SDS011;9648;51.130;13.978;2022-12-29T15:00:14;3.55;;;2.40;;
19030;SDS011;9648;51.130;13.978;2022-12-29T15:02:46;3.47;;;2.00;;
19030;SDS011;9648;51.130;13.978;2022-12-29T15:05:27;4.35;;;2.42;;
19030;SDS011;9648;51.130;13.978;2022-12-29T15:08:04;5.70;;;2.33;;
19030;SDS011;9648;51.130;13.978;2022-12-29T15:10:40;5.35;;;2.50;;
19030;SDS011;9648;51.130;13.978;2022-12-29T15:13:22;4.40;;;1.70;;
19030;SDS011;9648;51.130;13.978;2022-12-29T15:15:50;5.07;;;2.03;;
19030;SDS011;9648;51.130;13.978;2022-12-29T15:18:41;4.22;;;1.80;;
19030;SDS011;9648;51.130;13.978;2022-12-29T15:21:11;4.45;;;2.10;;
19030;SDS011;9648;51.130;13.978;2022-12-29T15:23:47;4.80;;;2.10;;
19030;SDS011;9648;51.130;13.978;2022-12-29T15:26:16;4.07;;;2.10;;
19030;SDS011;9648;51.130;13.978;2022-12-29T15:28:48;4.47;;;2.38;;
19030;SDS011;9648;51.130;13.978;2022-12-29T15:31:20;3.70;;;2.33;;
19030;SDS011;9648;51.130;13.978;2022-12-29T15:33:51;2.97;;;2.20;;
19030;SDS011;9648;51.130;13.978;2022-12-29T15:36:34;4.47;;;3.00;;
19030;SDS011;9648;51.130;13.978;2022-12-29T15:39:17;3.92;;;2.22;;
19030;SDS011;9648;51.130;13.978;2022-12-29T15:41:56;4.90;;;2.70;;
19030;SDS011;9648;51.130;13.978;2022-12-29T15:44:54;5.65;;;2.67;;
19030;SDS011;9648;51.130;13.978;2022-12-29T15:47:32;5.50;;;2.90;;
19030;SDS011;9648;51.130;13.978;2022-12-29T15:50:12;3.88;;;2.35;;
19030;SDS011;9648;51.130;13.978;2022-12-29T15:52:48;4.97;;;2.58;;
19030;SDS011;9648;51.130;13.978;2022-12-29T15:55:18;5.57;;;2.60;;
19030;SDS011;9648;51.130;13.978;2022-12-29T15:58:03;6.33;;;2.53;;
19030;SDS011;9648;51.130;13.978;2022-12-29T16:00:33;4.13;;;2.10;;
19030;SDS011;9648;51.130;13.978;2022-12-29T16:03:11;5.85;;;2.70;;
19030;SDS011;9648;51.130;13.978;2022-12-29T16:05:41;7.90;;;3.67;;
19030;SDS011;9648;51.130;13.978;2022-12-29T16:08:23;8.13;;;3.90;;
19030;SDS011;9648;51.130;13.978;2022-12-29T16:10:58;5.97;;;2.80;;
19030;SDS011;9648;51.130;13.978;2022-12-29T16:13:28;5.05;;;2.40;;
19030;SDS011;9648;51.130;13.978;2022-12-29T16:16:02;3.42;;;1.58;;
19030;SDS011;9648;51.130;13.978;2022-12-29T16:18:38;1.50;;;1.00;;
19030;SDS011;9648;51.130;13.978;2022-12-29T16:21:12;2.20;;;1.10;;